sensor_id;sensor_type;location;lat;lon;timestamp;temperature;humidity
71668;DHT22;59504;54.806;9.640;2023-04-25T00:02:00;7.20;72.30
71668;DHT22;59504;54.806;9.640;2023-04-25T00:04:03;7.20;72.30
71668;DHT22;59504;54.806;9.640;2023-04-25T00:06:08;7.20;72.20
71668;DHT22;59504;54.806;9.640;2023-04-25T00:08:09;7.20;72.20
71668;DHT22;59504;54.806;9.640;2023-04-25T00:10:12;7.10;72.20
71668;DHT22;59504;54.806;9.640;2023-04-25T00:12:15;7.00;72.20
71668;DHT22;59504;54.806;9.640;2023-04-25T00:14:16;7.10;72.30
71668;DHT22;59504;54.806;9.640;2023-04-25T00:16:17;7.20;72.40
71668;DHT22;59504;54.806;9.640;2023-04-25T00:18:17;7.00;72.40
71668;DHT22;59504;54.806;9.640;2023-04-25T00:20:19;7.00;72.40
71668;DHT22;59504;54.806;9.640;2023-04-25T00:22:20;7.00;72.50
71668;DHT22;59504;54.806;9.640;2023-04-25T00:24:21;7.10;72.40
71668;DHT22;59504;54.806;9.640;2023-04-25T00:26:21;6.90;71.90
71668;DHT22;59504;54.806;9.640;2023-04-25T00:28:22;7.00;71.70
71668;DHT22;59504;54.806;9.640;2023-04-25T00:30:23;6.90;71.60
71668;DHT22;59504;54.806;9.640;2023-04-25T00:32:24;6.90;71.50
71668;DHT22;59504;54.806;9.640;2023-04-25T00:34:27;6.80;71.50
71668;DHT22;59504;54.806;9.640;2023-04-25T00:36:28;6.80;71.70
71668;DHT22;59504;54.806;9.640;2023-04-25T00:38:32;6.80;72.00
71668;DHT22;59504;54.806;9.640;2023-04-25T00:40:35;6.70;72.30
71668;DHT22;59504;54.806;9.640;2023-04-25T00:42:55;6.70;72.50
71668;DHT22;59504;54.806;9.640;2023-04-25T00:45:16;6.60;72.60
71668;DHT22;59504;54.806;9.640;2023-04-25T00:47:37;6.60;72.70
71668;DHT22;59504;54.806;9.640;2023-04-25T00:50:00;6.70;72.80
71668;DHT22;59504;54.806;9.640;2023-04-25T00:52:21;6.70;73.10
71668;DHT22;59504;54.806;9.640;2023-04-25T00:54:45;6.50;73.20
71668;DHT22;59504;54.806;9.640;2023-04-25T00:57:08;6.50;74.20
71668;DHT22;59504;54.806;9.640;2023-04-25T00:59:09;6.40;73.50
71668;DHT22;59504;54.806;9.640;2023-04-25T01:01:12;6.50;73.70
71668;DHT22;59504;54.806;9.640;2023-04-25T01:03:14;6.40;73.60
71668;DHT22;59504;54.806;9.640;2023-04-25T01:05:21;6.40;73.60
71668;DHT22;59504;54.806;9.640;2023-04-25T01:07:21;6.40;73.70
71668;DHT22;59504;54.806;9.640;2023-04-25T01:09:22;6.40;73.60
71668;DHT22;59504;54.806;9.640;2023-04-25T01:11:25;6.30;73.50
71668;DHT22;59504;54.806;9.640;2023-04-25T01:13:26;6.30;73.50
71668;DHT22;59504;54.806;9.640;2023-04-25T01:15:27;6.30;73.50
71668;DHT22;59504;54.806;9.640;2023-04-25T01:17:28;6.20;73.50
71668;DHT22;59504;54.806;9.640;2023-04-25T01:19:29;6.20;73.30
71668;DHT22;59504;54.806;9.640;2023-04-25T01:21:30;6.20;73.60
71668;DHT22;59504;54.806;9.640;2023-04-25T01:23:31;6.20;73.60
71668;DHT22;59504;54.806;9.640;2023-04-25T01:25:35;6.20;73.70
71668;DHT22;59504;54.806;9.640;2023-04-25T01:27:36;6.20;73.70
71668;DHT22;59504;54.806;9.640;2023-04-25T01:29:37;6.20;73.80
71668;DHT22;59504;54.806;9.640;2023-04-25T01:31:45;6.20;73.90
71668;DHT22;59504;54.806;9.640;2023-04-25T01:33:45;6.20;73.80
71668;DHT22;59504;54.806;9.640;2023-04-25T01:35:46;6.10;73.60
71668;DHT22;59504;54.806;9.640;2023-04-25T01:37:47;6.10;73.40
71668;DHT22;59504;54.806;9.640;2023-04-25T01:39:56;6.10;73.20
71668;DHT22;59504;54.806;9.640;2023-04-25T01:42:14;6.10;72.90
71668;DHT22;59504;54.806;9.640;2023-04-25T01:44:15;6.00;72.50
71668;DHT22;59504;54.806;9.640;2023-04-25T01:48:40;6.00;72.60
71668;DHT22;59504;54.806;9.640;2023-04-25T01:50:41;5.90;72.70
71668;DHT22;59504;54.806;9.640;2023-04-25T01:52:41;5.90;72.80
71668;DHT22;59504;54.806;9.640;2023-04-25T01:54:42;5.90;72.70
71668;DHT22;59504;54.806;9.640;2023-04-25T01:56:51;6.00;72.90
71668;DHT22;59504;54.806;9.640;2023-04-25T01:58:54;5.90;72.80
71668;DHT22;59504;54.806;9.640;2023-04-25T02:01:00;5.80;72.50
71668;DHT22;59504;54.806;9.640;2023-04-25T02:03:10;5.80;72.60
71668;DHT22;59504;54.806;9.640;2023-04-25T02:05:13;5.90;72.70
71668;DHT22;59504;54.806;9.640;2023-04-25T02:07:24;5.70;72.50
71668;DHT22;59504;54.806;9.640;2023-04-25T02:09:36;5.90;72.50
71668;DHT22;59504;54.806;9.640;2023-04-25T02:11:44;5.70;72.40
71668;DHT22;59504;54.806;9.640;2023-04-25T02:13:45;5.80;72.40
71668;DHT22;59504;54.806;9.640;2023-04-25T02:15:51;5.80;72.40
71668;DHT22;59504;54.806;9.640;2023-04-25T02:17:55;5.70;72.20
71668;DHT22;59504;54.806;9.640;2023-04-25T02:19:56;5.80;72.30
71668;DHT22;59504;54.806;9.640;2023-04-25T02:22:24;5.70;72.20
71668;DHT22;59504;54.806;9.640;2023-04-25T02:24:25;5.70;71.80
71668;DHT22;59504;54.806;9.640;2023-04-25T02:26:30;5.60;71.80
71668;DHT22;59504;54.806;9.640;2023-04-25T02:28:34;5.70;71.80
71668;DHT22;59504;54.806;9.640;2023-04-25T02:30:43;5.70;71.70
71668;DHT22;59504;54.806;9.640;2023-04-25T02:32:44;5.60;71.70
71668;DHT22;59504;54.806;9.640;2023-04-25T02:34:48;5.60;71.90
71668;DHT22;59504;54.806;9.640;2023-04-25T02:36:51;5.70;72.00
71668;DHT22;59504;54.806;9.640;2023-04-25T02:39:03;5.60;71.80
71668;DHT22;59504;54.806;9.640;2023-04-25T02:41:05;5.60;71.50
71668;DHT22;59504;54.806;9.640;2023-04-25T02:43:09;5.70;71.50
71668;DHT22;59504;54.806;9.640;2023-04-25T02:45:14;5.60;71.10
71668;DHT22;59504;54.806;9.640;2023-04-25T02:47:19;5.80;71.30
71668;DHT22;59504;54.806;9.640;2023-04-25T02:49:30;5.60;71.00
71668;DHT22;59504;54.806;9.640;2023-04-25T02:51:38;5.70;70.90
71668;DHT22;59504;54.806;9.640;2023-04-25T02:53:49;5.60;70.40
71668;DHT22;59504;54.806;9.640;2023-04-25T02:55:52;5.60;70.20
71668;DHT22;59504;54.806;9.640;2023-04-25T02:58:16;5.60;70.00
71668;DHT22;59504;54.806;9.640;2023-04-25T03:00:20;5.60;69.60
71668;DHT22;59504;54.806;9.640;2023-04-25T03:02:21;5.70;69.40
71668;DHT22;59504;54.806;9.640;2023-04-25T03:04:24;5.70;69.50
71668;DHT22;59504;54.806;9.640;2023-04-25T03:06:25;5.70;69.50
71668;DHT22;59504;54.806;9.640;2023-04-25T03:08:32;5.70;69.40
71668;DHT22;59504;54.806;9.640;2023-04-25T03:10:34;5.70;69.60
71668;DHT22;59504;54.806;9.640;2023-04-25T03:12:35;5.70;69.50
71668;DHT22;59504;54.806;9.640;2023-04-25T03:14:36;5.70;69.60
71668;DHT22;59504;54.806;9.640;2023-04-25T03:16:37;5.70;69.40
71668;DHT22;59504;54.806;9.640;2023-04-25T03:18:37;5.70;69.50
71668;DHT22;59504;54.806;9.640;2023-04-25T03:20:41;5.80;69.40
71668;DHT22;59504;54.806;9.640;2023-04-25T03:22:44;5.80;69.20
71668;DHT22;59504;54.806;9.640;2023-04-25T03:24:57;5.70;69.00
71668;DHT22;59504;54.806;9.640;2023-04-25T03:27:01;5.60;68.90
71668;DHT22;59504;54.806;9.640;2023-04-25T03:29:02;5.70;69.10
71668;DHT22;59504;54.806;9.640;2023-04-25T03:31:02;5.70;69.10
71668;DHT22;59504;54.806;9.640;2023-04-25T03:33:03;5.70;69.00
71668;DHT22;59504;54.806;9.640;2023-04-25T03:35:04;5.80;69.10
71668;DHT22;59504;54.806;9.640;2023-04-25T03:37:05;5.70;69.00
71668;DHT22;59504;54.806;9.640;2023-04-25T03:39:06;5.80;68.60
71668;DHT22;59504;54.806;9.640;2023-04-25T03:41:07;5.80;68.70
71668;DHT22;59504;54.806;9.640;2023-04-25T03:43:07;5.70;68.80
71668;DHT22;59504;54.806;9.640;2023-04-25T03:45:08;5.70;68.60
71668;DHT22;59504;54.806;9.640;2023-04-25T03:47:09;5.70;68.70
71668;DHT22;59504;54.806;9.640;2023-04-25T03:49:12;5.70;68.60
71668;DHT22;59504;54.806;9.640;2023-04-25T03:51:16;5.60;68.30
71668;DHT22;59504;54.806;9.640;2023-04-25T03:53:17;5.70;68.40
71668;DHT22;59504;54.806;9.640;2023-04-25T03:55:18;5.80;67.80
71668;DHT22;59504;54.806;9.640;2023-04-25T03:57:18;5.80;67.70
71668;DHT22;59504;54.806;9.640;2023-04-25T03:59:19;5.70;68.00
71668;DHT22;59504;54.806;9.640;2023-04-25T04:01:20;5.70;67.80
71668;DHT22;59504;54.806;9.640;2023-04-25T04:03:28;5.70;67.60
71668;DHT22;59504;54.806;9.640;2023-04-25T04:05:29;5.70;67.80
71668;DHT22;59504;54.806;9.640;2023-04-25T04:07:32;5.70;67.80
71668;DHT22;59504;54.806;9.640;2023-04-25T04:09:42;5.80;67.60
71668;DHT22;59504;54.806;9.640;2023-04-25T04:11:43;5.70;67.10
71668;DHT22;59504;54.806;9.640;2023-04-25T04:13:43;5.70;67.20
71668;DHT22;59504;54.806;9.640;2023-04-25T04:15:44;5.80;67.00
71668;DHT22;59504;54.806;9.640;2023-04-25T04:17:47;5.60;67.00
71668;DHT22;59504;54.806;9.640;2023-04-25T04:19:48;5.70;66.70
71668;DHT22;59504;54.806;9.640;2023-04-25T04:21:49;5.70;66.40
71668;DHT22;59504;54.806;9.640;2023-04-25T04:23:49;5.60;66.20
71668;DHT22;59504;54.806;9.640;2023-04-25T04:25:50;5.70;65.50
71668;DHT22;59504;54.806;9.640;2023-04-25T04:27:51;5.70;65.70
71668;DHT22;59504;54.806;9.640;2023-04-25T04:29:58;5.60;65.60
71668;DHT22;59504;54.806;9.640;2023-04-25T04:32:04;5.60;65.40
71668;DHT22;59504;54.806;9.640;2023-04-25T04:34:11;5.60;65.40
71668;DHT22;59504;54.806;9.640;2023-04-25T04:36:11;5.60;65.50
71668;DHT22;59504;54.806;9.640;2023-04-25T04:38:13;5.60;65.20
71668;DHT22;59504;54.806;9.640;2023-04-25T04:40:16;5.70;65.60
71668;DHT22;59504;54.806;9.640;2023-04-25T04:42:19;5.60;65.50
71668;DHT22;59504;54.806;9.640;2023-04-25T04:44:21;5.60;65.20
71668;DHT22;59504;54.806;9.640;2023-04-25T04:46:22;5.70;64.90
71668;DHT22;59504;54.806;9.640;2023-04-25T04:48:25;5.60;65.20
71668;DHT22;59504;54.806;9.640;2023-04-25T04:50:33;5.70;65.30
71668;DHT22;59504;54.806;9.640;2023-04-25T04:52:35;5.70;65.20
71668;DHT22;59504;54.806;9.640;2023-04-25T04:54:44;5.60;64.60
71668;DHT22;59504;54.806;9.640;2023-04-25T04:56:45;5.70;64.20
71668;DHT22;59504;54.806;9.640;2023-04-25T04:58:45;5.70;63.70
71668;DHT22;59504;54.806;9.640;2023-04-25T05:00:49;5.70;63.80
71668;DHT22;59504;54.806;9.640;2023-04-25T05:02:50;5.70;62.90
71668;DHT22;59504;54.806;9.640;2023-04-25T05:05:00;5.70;62.10
71668;DHT22;59504;54.806;9.640;2023-04-25T05:07:07;5.60;61.00
71668;DHT22;59504;54.806;9.640;2023-04-25T05:09:08;5.60;61.10
71668;DHT22;59504;54.806;9.640;2023-04-25T05:11:21;5.70;61.40
71668;DHT22;59504;54.806;9.640;2023-04-25T05:13:24;5.70;61.00
71668;DHT22;59504;54.806;9.640;2023-04-25T05:15:25;5.70;60.70
71668;DHT22;59504;54.806;9.640;2023-04-25T05:17:28;5.60;61.00
71668;DHT22;59504;54.806;9.640;2023-04-25T05:19:36;5.70;60.80
71668;DHT22;59504;54.806;9.640;2023-04-25T05:21:37;5.70;60.30
71668;DHT22;59504;54.806;9.640;2023-04-25T05:23:37;5.70;60.80
71668;DHT22;59504;54.806;9.640;2023-04-25T05:25:38;5.70;61.00
71668;DHT22;59504;54.806;9.640;2023-04-25T05:27:41;5.70;60.90
71668;DHT22;59504;54.806;9.640;2023-04-25T05:29:42;5.70;60.40
71668;DHT22;59504;54.806;9.640;2023-04-25T05:31:42;5.70;60.00
71668;DHT22;59504;54.806;9.640;2023-04-25T05:33:54;5.70;60.00
71668;DHT22;59504;54.806;9.640;2023-04-25T05:36:00;5.70;59.80
71668;DHT22;59504;54.806;9.640;2023-04-25T05:38:04;5.70;59.80
71668;DHT22;59504;54.806;9.640;2023-04-25T05:40:05;5.70;60.10
71668;DHT22;59504;54.806;9.640;2023-04-25T05:42:07;5.70;59.90
71668;DHT22;59504;54.806;9.640;2023-04-25T05:44:07;5.80;59.90
71668;DHT22;59504;54.806;9.640;2023-04-25T05:46:12;5.80;59.60
71668;DHT22;59504;54.806;9.640;2023-04-25T05:48:12;5.80;58.90
71668;DHT22;59504;54.806;9.640;2023-04-25T05:50:13;5.80;59.30
71668;DHT22;59504;54.806;9.640;2023-04-25T05:52:13;5.80;59.30
71668;DHT22;59504;54.806;9.640;2023-04-25T05:54:22;5.80;59.00
71668;DHT22;59504;54.806;9.640;2023-04-25T05:56:26;5.80;59.50
71668;DHT22;59504;54.806;9.640;2023-04-25T05:58:27;5.90;59.20
71668;DHT22;59504;54.806;9.640;2023-04-25T06:00:28;5.90;58.90
71668;DHT22;59504;54.806;9.640;2023-04-25T06:02:29;5.90;58.30
71668;DHT22;59504;54.806;9.640;2023-04-25T06:04:29;6.00;57.40
71668;DHT22;59504;54.806;9.640;2023-04-25T06:06:30;6.00;57.00
71668;DHT22;59504;54.806;9.640;2023-04-25T06:08:31;6.00;57.50
71668;DHT22;59504;54.806;9.640;2023-04-25T06:10:32;6.10;57.40
71668;DHT22;59504;54.806;9.640;2023-04-25T06:12:32;6.10;57.60
71668;DHT22;59504;54.806;9.640;2023-04-25T06:14:33;6.20;57.70
71668;DHT22;59504;54.806;9.640;2023-04-25T06:16:34;6.30;57.90
71668;DHT22;59504;54.806;9.640;2023-04-25T06:18:39;6.40;57.50
71668;DHT22;59504;54.806;9.640;2023-04-25T06:20:47;6.40;57.80
71668;DHT22;59504;54.806;9.640;2023-04-25T06:22:48;6.50;57.00
71668;DHT22;59504;54.806;9.640;2023-04-25T06:24:49;6.50;56.60
71668;DHT22;59504;54.806;9.640;2023-04-25T06:26:50;6.60;55.70
71668;DHT22;59504;54.806;9.640;2023-04-25T06:28:51;6.70;56.00
71668;DHT22;59504;54.806;9.640;2023-04-25T06:30:54;6.70;56.00
71668;DHT22;59504;54.806;9.640;2023-04-25T06:32:58;6.70;56.20
71668;DHT22;59504;54.806;9.640;2023-04-25T06:35:06;6.70;56.40
71668;DHT22;59504;54.806;9.640;2023-04-25T06:37:12;6.60;56.40
71668;DHT22;59504;54.806;9.640;2023-04-25T06:39:13;6.70;57.10
71668;DHT22;59504;54.806;9.640;2023-04-25T06:41:17;6.70;57.50
71668;DHT22;59504;54.806;9.640;2023-04-25T06:45:33;6.60;57.20
71668;DHT22;59504;54.806;9.640;2023-04-25T06:47:34;6.70;57.50
71668;DHT22;59504;54.806;9.640;2023-04-25T06:49:40;6.60;57.40
71668;DHT22;59504;54.806;9.640;2023-04-25T06:51:41;6.50;57.30
71668;DHT22;59504;54.806;9.640;2023-04-25T06:53:41;6.60;58.00
71668;DHT22;59504;54.806;9.640;2023-04-25T06:55:47;6.60;58.40
71668;DHT22;59504;54.806;9.640;2023-04-25T06:57:48;6.60;58.60
71668;DHT22;59504;54.806;9.640;2023-04-25T06:59:48;6.50;58.20
71668;DHT22;59504;54.806;9.640;2023-04-25T07:01:49;6.60;58.20
71668;DHT22;59504;54.806;9.640;2023-04-25T07:03:53;6.60;58.60
71668;DHT22;59504;54.806;9.640;2023-04-25T07:05:53;6.60;59.00
71668;DHT22;59504;54.806;9.640;2023-04-25T07:07:55;6.70;59.30
71668;DHT22;59504;54.806;9.640;2023-04-25T07:09:55;6.70;59.40
71668;DHT22;59504;54.806;9.640;2023-04-25T07:11:56;6.70;59.20
71668;DHT22;59504;54.806;9.640;2023-04-25T07:14:01;6.80;59.30
71668;DHT22;59504;54.806;9.640;2023-04-25T07:16:02;6.70;58.70
71668;DHT22;59504;54.806;9.640;2023-04-25T07:18:03;6.70;57.40
71668;DHT22;59504;54.806;9.640;2023-04-25T07:20:08;6.70;57.00
71668;DHT22;59504;54.806;9.640;2023-04-25T07:22:09;6.70;57.10
71668;DHT22;59504;54.806;9.640;2023-04-25T07:24:10;6.80;56.20
71668;DHT22;59504;54.806;9.640;2023-04-25T07:26:31;6.80;55.40
71668;DHT22;59504;54.806;9.640;2023-04-25T07:28:35;6.80;53.90
71668;DHT22;59504;54.806;9.640;2023-04-25T07:30:39;6.80;53.10
71668;DHT22;59504;54.806;9.640;2023-04-25T07:32:49;6.70;53.30
71668;DHT22;59504;54.806;9.640;2023-04-25T07:34:50;6.80;53.30
71668;DHT22;59504;54.806;9.640;2023-04-25T07:36:51;6.80;52.60
71668;DHT22;59504;54.806;9.640;2023-04-25T07:38:56;6.80;52.30
71668;DHT22;59504;54.806;9.640;2023-04-25T07:41:00;6.90;53.00
71668;DHT22;59504;54.806;9.640;2023-04-25T07:43:00;6.90;53.10
71668;DHT22;59504;54.806;9.640;2023-04-25T07:45:17;6.80;53.10
71668;DHT22;59504;54.806;9.640;2023-04-25T07:47:18;6.80;53.20
71668;DHT22;59504;54.806;9.640;2023-04-25T07:49:30;6.80;52.90
71668;DHT22;59504;54.806;9.640;2023-04-25T07:51:31;6.80;53.00
71668;DHT22;59504;54.806;9.640;2023-04-25T07:53:32;6.80;53.30
71668;DHT22;59504;54.806;9.640;2023-04-25T07:55:34;6.80;53.60
71668;DHT22;59504;54.806;9.640;2023-04-25T07:57:34;7.00;53.90
71668;DHT22;59504;54.806;9.640;2023-04-25T07:59:35;6.90;54.30
71668;DHT22;59504;54.806;9.640;2023-04-25T08:01:36;6.90;53.10
71668;DHT22;59504;54.806;9.640;2023-04-25T08:03:37;6.90;53.30
71668;DHT22;59504;54.806;9.640;2023-04-25T08:05:37;7.00;53.20
71668;DHT22;59504;54.806;9.640;2023-04-25T08:07:38;7.00;52.40
71668;DHT22;59504;54.806;9.640;2023-04-25T08:09:42;7.10;52.50
71668;DHT22;59504;54.806;9.640;2023-04-25T08:11:42;7.10;52.50
71668;DHT22;59504;54.806;9.640;2023-04-25T08:13:43;7.00;51.60
71668;DHT22;59504;54.806;9.640;2023-04-25T08:15:44;7.00;51.00
71668;DHT22;59504;54.806;9.640;2023-04-25T08:17:44;7.00;51.60
71668;DHT22;59504;54.806;9.640;2023-04-25T08:19:45;7.00;51.80
71668;DHT22;59504;54.806;9.640;2023-04-25T08:21:46;7.00;51.70
71668;DHT22;59504;54.806;9.640;2023-04-25T08:23:46;7.00;51.80
71668;DHT22;59504;54.806;9.640;2023-04-25T08:25:47;7.00;52.40
71668;DHT22;59504;54.806;9.640;2023-04-25T08:27:47;7.00;52.80
71668;DHT22;59504;54.806;9.640;2023-04-25T08:29:48;7.00;52.50
71668;DHT22;59504;54.806;9.640;2023-04-25T08:31:49;7.00;52.20
71668;DHT22;59504;54.806;9.640;2023-04-25T08:33:51;7.00;52.10
71668;DHT22;59504;54.806;9.640;2023-04-25T08:35:52;7.00;52.70
71668;DHT22;59504;54.806;9.640;2023-04-25T08:37:52;7.00;52.90
71668;DHT22;59504;54.806;9.640;2023-04-25T08:39:53;7.10;52.50
71668;DHT22;59504;54.806;9.640;2023-04-25T08:41:54;7.00;51.70
71668;DHT22;59504;54.806;9.640;2023-04-25T08:43:55;7.00;52.20
71668;DHT22;59504;54.806;9.640;2023-04-25T08:45:58;7.10;52.50
71668;DHT22;59504;54.806;9.640;2023-04-25T08:48:00;7.00;52.20
71668;DHT22;59504;54.806;9.640;2023-04-25T08:50:01;7.10;52.70
71668;DHT22;59504;54.806;9.640;2023-04-25T08:52:03;7.10;53.00
71668;DHT22;59504;54.806;9.640;2023-04-25T08:54:09;7.10;52.90
71668;DHT22;59504;54.806;9.640;2023-04-25T08:56:10;7.10;53.20
71668;DHT22;59504;54.806;9.640;2023-04-25T08:58:13;7.20;53.70
71668;DHT22;59504;54.806;9.640;2023-04-25T09:00:14;7.20;53.90
71668;DHT22;59504;54.806;9.640;2023-04-25T09:02:15;7.20;53.90
71668;DHT22;59504;54.806;9.640;2023-04-25T09:04:18;7.20;53.90
71668;DHT22;59504;54.806;9.640;2023-04-25T09:06:20;7.20;54.10
71668;DHT22;59504;54.806;9.640;2023-04-25T09:08:21;7.30;54.00
71668;DHT22;59504;54.806;9.640;2023-04-25T09:10:22;7.30;54.80
71668;DHT22;59504;54.806;9.640;2023-04-25T09:12:22;7.30;55.30
71668;DHT22;59504;54.806;9.640;2023-04-25T09:14:23;7.40;56.00
71668;DHT22;59504;54.806;9.640;2023-04-25T09:16:26;7.50;54.80
71668;DHT22;59504;54.806;9.640;2023-04-25T09:18:28;7.50;53.70
71668;DHT22;59504;54.806;9.640;2023-04-25T09:20:29;7.60;53.00
71668;DHT22;59504;54.806;9.640;2023-04-25T09:22:30;7.70;51.80
71668;DHT22;59504;54.806;9.640;2023-04-25T09:24:31;7.80;51.30
71668;DHT22;59504;54.806;9.640;2023-04-25T09:26:32;7.90;51.00
71668;DHT22;59504;54.806;9.640;2023-04-25T09:28:33;8.00;51.00
71668;DHT22;59504;54.806;9.640;2023-04-25T09:30:36;8.00;50.30
71668;DHT22;59504;54.806;9.640;2023-04-25T09:32:36;8.10;49.90
71668;DHT22;59504;54.806;9.640;2023-04-25T09:34:44;8.20;49.40
71668;DHT22;59504;54.806;9.640;2023-04-25T09:36:45;8.20;49.10
71668;DHT22;59504;54.806;9.640;2023-04-25T09:38:48;8.20;48.70
71668;DHT22;59504;54.806;9.640;2023-04-25T09:40:51;8.20;48.60
71668;DHT22;59504;54.806;9.640;2023-04-25T09:42:52;8.00;49.00
71668;DHT22;59504;54.806;9.640;2023-04-25T09:44:53;8.00;49.70
71668;DHT22;59504;54.806;9.640;2023-04-25T09:46:54;8.00;50.60
71668;DHT22;59504;54.806;9.640;2023-04-25T09:48:54;8.00;50.50
71668;DHT22;59504;54.806;9.640;2023-04-25T09:51:08;8.00;51.10
71668;DHT22;59504;54.806;9.640;2023-04-25T09:53:09;8.00;51.70
71668;DHT22;59504;54.806;9.640;2023-04-25T09:55:10;8.00;51.50
71668;DHT22;59504;54.806;9.640;2023-04-25T09:57:12;8.10;51.90
71668;DHT22;59504;54.806;9.640;2023-04-25T09:59:13;8.10;51.90
71668;DHT22;59504;54.806;9.640;2023-04-25T10:01:15;8.10;51.70
71668;DHT22;59504;54.806;9.640;2023-04-25T10:03:17;8.10;50.50
71668;DHT22;59504;54.806;9.640;2023-04-25T10:05:18;8.20;49.10
71668;DHT22;59504;54.806;9.640;2023-04-25T10:07:19;8.10;49.00
71668;DHT22;59504;54.806;9.640;2023-04-25T10:09:21;8.10;49.10
71668;DHT22;59504;54.806;9.640;2023-04-25T10:11:23;8.10;49.90
71668;DHT22;59504;54.806;9.640;2023-04-25T10:13:25;8.10;51.00
71668;DHT22;59504;54.806;9.640;2023-04-25T10:15:26;8.10;51.60
71668;DHT22;59504;54.806;9.640;2023-04-25T10:17:27;8.20;52.00
71668;DHT22;59504;54.806;9.640;2023-04-25T10:19:31;8.10;51.90
71668;DHT22;59504;54.806;9.640;2023-04-25T10:21:32;8.10;50.80
71668;DHT22;59504;54.806;9.640;2023-04-25T10:23:34;8.10;50.70
71668;DHT22;59504;54.806;9.640;2023-04-25T10:25:35;8.10;51.20
71668;DHT22;59504;54.806;9.640;2023-04-25T10:27:36;8.10;51.40
71668;DHT22;59504;54.806;9.640;2023-04-25T10:29:37;8.00;51.40
71668;DHT22;59504;54.806;9.640;2023-04-25T10:31:45;7.90;50.70
71668;DHT22;59504;54.806;9.640;2023-04-25T10:33:47;7.90;51.10
71668;DHT22;59504;54.806;9.640;2023-04-25T10:35:48;7.90;52.70
71668;DHT22;59504;54.806;9.640;2023-04-25T10:40:18;8.00;53.00
71668;DHT22;59504;54.806;9.640;2023-04-25T10:42:28;8.00;51.80
71668;DHT22;59504;54.806;9.640;2023-04-25T10:44:29;8.00;51.30
71668;DHT22;59504;54.806;9.640;2023-04-25T10:46:30;8.00;50.00
71668;DHT22;59504;54.806;9.640;2023-04-25T10:48:36;8.00;49.90
71668;DHT22;59504;54.806;9.640;2023-04-25T10:50:37;8.00;49.90
71668;DHT22;59504;54.806;9.640;2023-04-25T10:52:39;8.00;49.60
71668;DHT22;59504;54.806;9.640;2023-04-25T10:54:46;8.10;50.60
71668;DHT22;59504;54.806;9.640;2023-04-25T10:56:48;8.10;51.00
71668;DHT22;59504;54.806;9.640;2023-04-25T10:58:48;8.20;49.30
71668;DHT22;59504;54.806;9.640;2023-04-25T11:00:49;8.20;48.60
71668;DHT22;59504;54.806;9.640;2023-04-25T11:02:57;8.20;48.80
71668;DHT22;59504;54.806;9.640;2023-04-25T11:04:58;8.30;49.80
71668;DHT22;59504;54.806;9.640;2023-04-25T11:09:00;8.40;50.30
71668;DHT22;59504;54.806;9.640;2023-04-25T11:11:01;8.50;50.40
71668;DHT22;59504;54.806;9.640;2023-04-25T11:13:02;8.40;49.60
71668;DHT22;59504;54.806;9.640;2023-04-25T11:15:03;8.60;50.70
71668;DHT22;59504;54.806;9.640;2023-04-25T11:17:07;8.60;49.80
71668;DHT22;59504;54.806;9.640;2023-04-25T11:19:08;8.70;49.70
71668;DHT22;59504;54.806;9.640;2023-04-25T11:21:09;8.60;50.00
71668;DHT22;59504;54.806;9.640;2023-04-25T11:23:10;8.70;50.10
71668;DHT22;59504;54.806;9.640;2023-04-25T11:25:11;8.60;50.60
71668;DHT22;59504;54.806;9.640;2023-04-25T11:27:12;8.50;50.10
71668;DHT22;59504;54.806;9.640;2023-04-25T11:29:12;8.50;49.80
71668;DHT22;59504;54.806;9.640;2023-04-25T11:31:13;8.40;49.90
71668;DHT22;59504;54.806;9.640;2023-04-25T11:33:13;8.30;50.70
71668;DHT22;59504;54.806;9.640;2023-04-25T11:35:14;8.10;51.40
71668;DHT22;59504;54.806;9.640;2023-04-25T11:37:15;8.10;51.70
71668;DHT22;59504;54.806;9.640;2023-04-25T11:39:16;8.00;51.60
71668;DHT22;59504;54.806;9.640;2023-04-25T11:41:18;8.00;52.40
71668;DHT22;59504;54.806;9.640;2023-04-25T11:43:22;8.00;53.00
71668;DHT22;59504;54.806;9.640;2023-04-25T11:45:23;8.00;52.60
71668;DHT22;59504;54.806;9.640;2023-04-25T11:47:28;8.10;53.70
71668;DHT22;59504;54.806;9.640;2023-04-25T11:49:31;8.00;53.10
71668;DHT22;59504;54.806;9.640;2023-04-25T11:51:39;8.10;53.00
71668;DHT22;59504;54.806;9.640;2023-04-25T11:53:44;8.10;53.10
71668;DHT22;59504;54.806;9.640;2023-04-25T11:55:45;8.10;53.60
71668;DHT22;59504;54.806;9.640;2023-04-25T11:57:49;8.10;53.60
71668;DHT22;59504;54.806;9.640;2023-04-25T11:59:50;8.00;54.30
71668;DHT22;59504;54.806;9.640;2023-04-25T12:01:51;8.00;56.00
71668;DHT22;59504;54.806;9.640;2023-04-25T12:03:52;7.90;56.90
71668;DHT22;59504;54.806;9.640;2023-04-25T12:05:53;7.80;56.70
71668;DHT22;59504;54.806;9.640;2023-04-25T12:07:53;7.80;56.40
71668;DHT22;59504;54.806;9.640;2023-04-25T12:09:54;7.80;56.20
71668;DHT22;59504;54.806;9.640;2023-04-25T12:11:55;7.70;56.60
71668;DHT22;59504;54.806;9.640;2023-04-25T12:13:56;7.60;57.80
71668;DHT22;59504;54.806;9.640;2023-04-25T12:16:01;7.70;57.80
71668;DHT22;59504;54.806;9.640;2023-04-25T12:18:02;7.70;57.10
71668;DHT22;59504;54.806;9.640;2023-04-25T12:20:09;7.60;57.20
71668;DHT22;59504;54.806;9.640;2023-04-25T12:22:20;7.60;57.00
71668;DHT22;59504;54.806;9.640;2023-04-25T12:24:22;7.60;56.70
71668;DHT22;59504;54.806;9.640;2023-04-25T12:26:24;7.70;56.10
71668;DHT22;59504;54.806;9.640;2023-04-25T12:28:25;7.60;55.70
71668;DHT22;59504;54.806;9.640;2023-04-25T12:30:30;7.70;55.30
71668;DHT22;59504;54.806;9.640;2023-04-25T12:32:51;7.70;55.60
71668;DHT22;59504;54.806;9.640;2023-04-25T12:34:52;7.80;55.70
71668;DHT22;59504;54.806;9.640;2023-04-25T12:36:53;7.90;54.70
71668;DHT22;59504;54.806;9.640;2023-04-25T12:38:54;8.00;55.20
71668;DHT22;59504;54.806;9.640;2023-04-25T12:40:55;8.00;54.50
71668;DHT22;59504;54.806;9.640;2023-04-25T12:42:58;8.10;53.00
71668;DHT22;59504;54.806;9.640;2023-04-25T12:44:59;8.20;51.80
71668;DHT22;59504;54.806;9.640;2023-04-25T12:47:00;8.20;49.60
71668;DHT22;59504;54.806;9.640;2023-04-25T12:49:00;8.30;47.50
71668;DHT22;59504;54.806;9.640;2023-04-25T12:51:01;8.30;48.10
71668;DHT22;59504;54.806;9.640;2023-04-25T12:53:02;8.40;48.10
71668;DHT22;59504;54.806;9.640;2023-04-25T12:55:05;8.40;48.60
71668;DHT22;59504;54.806;9.640;2023-04-25T12:57:06;8.40;47.80
71668;DHT22;59504;54.806;9.640;2023-04-25T12:59:07;8.40;48.40
71668;DHT22;59504;54.806;9.640;2023-04-25T13:01:08;8.40;49.00
71668;DHT22;59504;54.806;9.640;2023-04-25T13:03:08;8.40;50.00
71668;DHT22;59504;54.806;9.640;2023-04-25T13:05:10;8.40;51.00
71668;DHT22;59504;54.806;9.640;2023-04-25T13:07:11;8.50;51.20
71668;DHT22;59504;54.806;9.640;2023-04-25T13:09:12;8.40;53.80
71668;DHT22;59504;54.806;9.640;2023-04-25T13:11:12;8.20;55.40
71668;DHT22;59504;54.806;9.640;2023-04-25T13:13:15;8.20;56.10
71668;DHT22;59504;54.806;9.640;2023-04-25T13:15:16;8.10;56.60
71668;DHT22;59504;54.806;9.640;2023-04-25T13:17:17;8.00;57.90
71668;DHT22;59504;54.806;9.640;2023-04-25T13:19:18;8.00;58.10